Time;durP1;ratioP1;P1;durP2;ratioP2;P2;SDS_P1;SDS_P2;PMS_P1;PMS_P2;Temp;Humidity;BMP_temperature;BMP_pressure;BME280_temperature;BME280_humidity;BME280_pressure;Samples;Min_cycle;Max_cycle;Signal;HPM_P1;HPM_P2
2021/12/09 00:01:04;;;;;;;50.90;31.77;;;;;;;8.30;84.05;100019.02;1706303;84;21216;-52
2021/12/09 00:04:14;;;;;;;53.50;32.95;;;;;;;8.29;84.18;100022.78;1706938;83;21741;-51
2021/12/09 00:07:20;;;;;;;51.13;33.53;;;;;;;8.29;84.30;100032.32;1706334;84;21219;-51
2021/12/09 00:10:26;;;;;;;51.90;30.95;;;;;;;8.27;84.21;100026.17;1706182;83;21209;-52
2021/12/09 00:13:33;;;;;;;50.05;31.73;;;;;;;8.25;84.33;100030.94;1706461;83;21228;-51
2021/12/09 00:16:39;;;;;;;48.08;31.82;;;;;;;8.24;84.41;100023.30;1706342;84;21207;-55
2021/12/09 00:19:45;;;;;;;55.08;31.57;;;;;;;8.24;84.35;100025.16;1706417;83;21235;-52
2021/12/09 00:22:51;;;;;;;61.20;33.48;;;;;;;8.24;84.38;100037.42;1706621;84;21236;-52
2021/12/09 00:25:58;;;;;;;51.85;32.30;;;;;;;8.23;84.42;100028.38;1706683;83;21256;-53
2021/12/09 00:29:04;;;;;;;51.40;32.95;;;;;;;8.21;84.31;100035.88;1706487;84;21618;-52
2021/12/09 00:32:11;;;;;;;56.02;32.67;;;;;;;8.20;84.32;100046.41;1706559;83;21223;-53
2021/12/09 00:35:17;;;;;;;54.33;32.28;;;;;;;8.21;84.38;100050.00;1706690;84;21219;-53
2021/12/09 00:38:34;;;;;;;55.15;32.05;;;;;;;8.22;84.44;100046.25;1706386;82;21199;-52
2021/12/09 00:41:32;;;;;;;45.70;30.17;;;;;;;8.19;84.44;100042.00;1706240;83;21220;-52
2021/12/09 00:44:38;;;;;;;46.65;28.80;;;;;;;8.20;84.42;100042.83;1733431;82;21304;-51
2021/12/09 00:47:36;;;;;;;45.03;29.40;;;;;;;8.19;84.35;100045.22;1731524;82;21413;-52
2021/12/09 00:50:42;;;;;;;43.28;28.92;;;;;;;8.18;84.31;100051.17;1740599;82;21431;-52
2021/12/09 00:53:48;;;;;;;47.23;28.80;;;;;;;8.18;84.33;100042.17;1740006;82;21236;-51
2021/12/09 00:56:53;;;;;;;47.43;29.80;;;;;;;8.17;84.27;100045.39;1741128;82;21714;-52
2021/12/09 01:00:00;;;;;;;43.65;29.27;;;;;;;8.17;84.20;100059.03;1740448;82;21205;-52
2021/12/09 01:03:07;;;;;;;44.25;29.50;;;;;;;8.18;84.33;100059.35;1740219;82;21204;-52
2021/12/09 01:06:12;;;;;;;52.30;29.72;;;;;;;8.20;84.37;100060.55;1706045;84;21366;-53
2021/12/09 01:09:18;;;;;;;46.92;30.43;;;;;;;8.21;84.32;100060.91;1706187;83;21375;-53
2021/12/09 01:12:24;;;;;;;45.88;29.02;;;;;;;8.20;84.24;100068.73;1706191;83;21334;-52
2021/12/09 01:15:34;;;;;;;42.70;29.27;;;;;;;8.18;84.22;100063.45;1706474;83;21414;-52
2021/12/09 01:18:40;;;;;;;46.37;29.10;;;;;;;8.18;84.26;100066.17;1706423;83;21331;-54
2021/12/09 01:21:45;;;;;;;46.63;29.18;;;;;;;8.18;84.29;100070.27;1706089;83;21236;-53
2021/12/09 01:24:51;;;;;;;44.77;28.80;;;;;;;8.16;84.16;100067.37;1706224;83;21338;-53
2021/12/09 01:27:59;;;;;;;42.67;27.62;;;;;;;8.15;84.25;100064.31;1706273;83;21386;-53
2021/12/09 01:31:06;;;;;;;45.08;28.52;;;;;;;8.13;84.29;100064.48;1705954;83;21327;-53
2021/12/09 01:34:29;;;;;;;41.42;26.95;;;;;;;8.13;84.26;100057.67;1706328;83;21196;-52
2021/12/09 01:37:27;;;;;;;48.52;29.98;;;;;;;8.10;84.26;100070.78;1706750;83;21196;-52
2021/12/09 01:40:34;;;;;;;43.58;28.38;;;;;;;8.09;84.38;100071.78;1706383;82;21246;-52
2021/12/09 01:43:41;;;;;;;42.98;27.20;;;;;;;8.10;84.43;100073.50;1688212;84;21369;-54
2021/12/09 01:46:47;;;;;;;46.68;27.77;;;;;;;8.09;84.46;100071.78;1706179;84;21207;-53
2021/12/09 01:49:52;;;;;;;44.50;28.27;;;;;;;8.09;84.53;100076.73;1706539;83;21705;-53
2021/12/09 01:53:00;;;;;;;48.52;28.23;;;;;;;8.12;84.49;100085.10;1706231;84;21235;-53
2021/12/09 01:56:09;;;;;;;47.58;30.45;;;;;;;8.10;84.49;100088.00;1706495;83;21207;-53
2021/12/09 01:59:17;;;;;;;45.15;29.70;;;;;;;8.12;84.53;100087.83;1706444;83;21251;-52
2021/12/09 02:02:25;;;;;;;51.28;30.10;;;;;;;8.12;84.63;100087.83;1706345;84;21228;-52
2021/12/09 02:05:33;;;;;;;48.85;29.48;;;;;;;8.12;84.59;100085.94;1705710;84;21219;-54
2021/12/09 02:08:39;;;;;;;50.60;30.60;;;;;;;8.10;84.59;100078.45;1707051;83;21271;-54
2021/12/09 02:11:45;;;;;;;48.60;29.95;;;;;;;8.08;84.65;100083.22;1706591;83;21188;-53
2021/12/09 02:14:52;;;;;;;49.48;30.25;;;;;;;8.07;84.73;100077.40;1706438;84;21220;-53
2021/12/09 02:17:58;;;;;;;48.13;30.23;;;;;;;8.08;84.79;100082.35;1706589;83;21299;-52
2021/12/09 02:21:22;;;;;;;50.65;30.57;;;;;;;8.09;84.87;100093.58;1706283;84;21295;-52
2021/12/09 02:24:28;;;;;;;53.48;31.52;;;;;;;8.08;84.93;100094.62;1706534;83;21733;-54
2021/12/09 02:27:33;;;;;;;48.83;30.62;;;;;;;8.09;85.02;100093.58;1706271;84;21212;-51
2021/12/09 02:30:40;;;;;;;53.73;31.05;;;;;;;8.09;85.08;100096.31;1706480;83;21195;-52
2021/12/09 02:33:47;;;;;;;47.00;29.57;;;;;;;8.07;85.09;100100.57;1706372;84;21259;-52
2021/12/09 02:36:52;;;;;;;53.23;31.25;;;;;;;8.07;85.09;100099.73;1706756;83;21228;-52
2021/12/09 02:39:59;;;;;;;53.28;31.02;;;;;;;8.05;85.18;100101.77;1708934;80;21702;-52
2021/12/09 02:43:08;;;;;;;55.78;31.27;;;;;;;8.02;85.12;100102.97;1707520;83;21235;-52
2021/12/09 02:46:15;;;;;;;48.55;31.00;;;;;;;7.95;85.30;100111.95;1740794;82;21544;-52
2021/12/09 02:49:26;;;;;;;55.88;30.92;;;;;;;7.97;85.55;100116.73;1713328;84;21223;-54
2021/12/09 02:53:03;;;;;;;55.38;31.48;;;;;;;7.99;85.63;100116.06;1713884;83;21717;-52
2021/12/09 02:56:26;;;;;;;55.50;32.93;;;;;;;7.99;85.71;100122.88;1735857;82;21232;-53
2021/12/09 02:59:54;;;;;;;55.00;31.17;;;;;;;7.98;85.75;100129.33;1712868;84;21980;-52
2021/12/09 03:03:00;;;;;;;56.00;31.73;;;;;;;7.99;85.88;100132.42;1713603;83;21192;-52
2021/12/09 03:06:08;;;;;;;56.42;32.23;;;;;;;8.00;85.84;100136.34;1706664;83;21322;-52
2021/12/09 03:09:21;;;;;;;60.03;34.15;;;;;;;7.99;85.84;100131.89;1742523;82;21855;-54
2021/12/09 03:12:33;;;;;;;63.75;34.88;;;;;;;8.00;85.93;100139.56;1742730;82;21379;-52
2021/12/09 03:15:41;;;;;;;60.45;32.50;;;;;;;8.00;85.93;100139.56;1713629;84;21320;-53
2021/12/09 03:18:52;;;;;;;52.40;30.65;;;;;;;8.00;85.97;100141.80;1735089;82;21324;-51
2021/12/09 03:21:57;;;;;;;65.70;34.63;;;;;;;8.01;85.96;100142.66;1742251;82;21458;-52
2021/12/09 03:25:04;;;;;;;58.70;32.83;;;;;;;8.00;85.99;100137.70;1742386;82;21339;-51
2021/12/09 03:28:10;;;;;;;60.43;32.05;;;;;;;8.01;85.98;100142.66;1742425;82;21461;-52
2021/12/09 03:31:17;;;;;;;53.10;30.70;;;;;;;8.00;86.01;100145.02;1742749;82;21181;-53
2021/12/09 03:34:24;;;;;;;63.48;33.73;;;;;;;7.99;86.05;100148.77;1742119;82;21780;-52
2021/12/09 03:37:31;;;;;;;57.78;32.38;;;;;;;7.98;86.08;100157.95;1742382;82;21355;-52
2021/12/09 03:40:36;;;;;;;63.45;34.73;;;;;;;7.96;86.10;100155.39;1742209;82;21344;-53
2021/12/09 03:43:43;;;;;;;57.70;32.98;;;;;;;7.97;86.21;100157.12;1727938;82;21410;-53
2021/12/09 03:46:52;;;;;;;67.15;33.28;;;;;;;7.97;86.20;100150.80;1728400;82;21292;-53
2021/12/09 03:49:58;;;;;;;65.25;35.78;;;;;;;7.94;86.23;100160.67;1727514;82;21376;-53
2021/12/09 03:53:04;;;;;;;67.55;34.58;;;;;;;7.92;86.29;100168.16;1728723;82;21229;-53
2021/12/09 03:56:11;;;;;;;62.45;34.95;;;;;;;7.92;86.47;100173.61;1727462;83;21236;-53
2021/12/09 03:59:17;;;;;;;70.28;33.83;;;;;;;7.92;86.55;100166.29;1727341;82;21351;-52
2021/12/09 04:02:23;;;;;;;66.80;32.83;;;;;;;7.91;86.55;100170.55;1727397;83;21217;-52
2021/12/09 04:05:30;;;;;;;62.85;32.73;;;;;;;7.89;86.66;100172.57;1727582;82;21382;-58
2021/12/09 04:08:36;;;;;;;67.20;34.30;;;;;;;7.90;86.75;100175.63;1728034;82;21232;-58
2021/12/09 04:11:42;;;;;;;67.20;33.08;;;;;;;7.86;86.68;100176.49;1727258;83;21867;-59
2021/12/09 04:14:48;;;;;;;73.50;35.30;;;;;;;7.85;86.80;100176.66;1727744;82;21347;-58
2021/12/09 04:17:55;;;;;;;71.00;34.53;;;;;;;7.82;86.77;100181.91;1727421;82;21224;-58
2021/12/09 04:21:02;;;;;;;66.82;35.55;;;;;;;7.81;86.97;100177.98;1727379;82;21340;-58
2021/12/09 04:24:11;;;;;;;69.12;35.20;;;;;;;7.80;87.15;100181.73;1727469;83;21342;-57
2021/12/09 04:27:17;;;;;;;73.02;37.20;;;;;;;7.82;87.19;100182.44;1727435;83;21387;-59
2021/12/09 04:30:23;;;;;;;70.55;36.98;;;;;;;7.79;87.23;100186.82;1727869;82;21402;-58
2021/12/09 04:33:30;;;;;;;77.15;36.17;;;;;;;7.81;87.47;100188.88;1727752;82;21398;-57
2021/12/09 04:36:39;;;;;;;63.40;33.78;;;;;;;7.80;87.39;100188.02;1727248;83;21793;-58
2021/12/09 04:39:46;;;;;;;71.28;33.53;;;;;;;7.80;87.58;100192.11;1727971;82;21193;-58
2021/12/09 04:42:52;;;;;;;64.60;33.28;;;;;;;7.82;87.65;100191.98;1732627;80;21863;-58
2021/12/09 04:46:00;;;;;;;62.33;34.03;;;;;;;7.83;87.64;100198.62;1740275;82;21335;-59
2021/12/09 04:49:06;;;;;;;70.32;33.48;;;;;;;7.82;87.70;100198.26;1740206;82;21359;-57
2021/12/09 04:52:13;;;;;;;66.05;32.67;;;;;;;7.85;87.80;100203.91;1740140;82;21212;-58
2021/12/09 04:55:17;;;;;;;75.70;34.25;;;;;;;7.85;87.79;100198.45;1685237;83;21263;-59
2021/12/09 04:58:23;;;;;;;61.50;31.73;;;;;;;7.87;87.88;100205.44;1706292;84;21235;-58
2021/12/09 05:01:29;;;;;;;65.30;33.18;;;;;;;7.89;87.87;100204.77;1706280;84;21341;-58
2021/12/09 05:04:36;;;;;;;64.22;31.93;;;;;;;7.91;87.88;100208.20;1706187;83;21208;-56
2021/12/09 05:07:43;;;;;;;65.45;32.75;;;;;;;7.90;87.80;100211.06;1706438;83;21220;-58
2021/12/09 05:14:06;;;;;;;60.88;32.28;;;;;;;7.86;87.84;100216.01;1693092;85;21392;-61
2021/12/09 05:17:12;;;;;;;71.17;34.15;;;;;;;7.80;87.83;100213.91;1691438;84;21249;-57
2021/12/09 05:20:19;;;;;;;68.57;33.98;;;;;;;7.80;88.03;100226.70;1740422;82;21255;-58
2021/12/09 05:23:26;;;;;;;68.20;33.58;;;;;;;7.80;88.15;100222.61;1740260;82;21217;-57
2021/12/09 05:26:39;;;;;;;69.32;32.73;;;;;;;7.82;88.29;100226.87;1740280;82;21287;-58
2021/12/09 05:29:43;;;;;;;65.80;33.13;;;;;;;7.84;88.39;100236.23;1740300;82;21793;-58
2021/12/09 05:32:50;;;;;;;70.32;32.55;;;;;;;7.85;88.43;100240.70;1740214;81;21230;-59
2021/12/09 05:35:55;;;;;;;69.22;33.30;;;;;;;7.88;88.46;100239.00;1740587;81;21765;-59
2021/12/09 05:39:00;;;;;;;77.25;33.38;;;;;;;7.90;88.50;100245.13;1740634;82;21220;-58
2021/12/09 05:42:06;;;;;;;64.32;32.58;;;;;;;7.91;88.50;100245.49;1740262;82;21304;-58
2021/12/09 05:45:14;;;;;;;69.22;32.55;;;;;;;7.91;88.38;100246.36;1740729;81;21366;-57
2021/12/09 05:48:19;;;;;;;67.62;32.33;;;;;;;7.91;88.42;100256.39;1752728;81;21829;-57
2021/12/09 05:51:24;;;;;;;66.10;32.70;;;;;;;7.92;88.49;100254.00;1753167;81;21185;-57
2021/12/09 05:54:30;;;;;;;59.23;30.68;;;;;;;7.93;88.45;100259.82;1749754;81;21487;-57
2021/12/09 05:57:37;;;;;;;65.12;32.38;;;;;;;7.94;88.53;100257.43;1770374;80;21220;-58
2021/12/09 06:00:42;;;;;;;67.67;34.33;;;;;;;7.96;88.56;100255.41;1769453;81;21215;-57
2021/12/09 06:03:49;;;;;;;69.62;33.40;;;;;;;8.01;88.55;100266.67;1765960;80;21535;-57
2021/12/09 06:06:54;;;;;;;66.28;32.10;;;;;;;8.02;88.45;100265.65;1736821;80;21204;-58
2021/12/09 06:10:03;;;;;;;59.77;30.80;;;;;;;8.02;88.44;100266.52;1747555;80;21190;-57
2021/12/09 06:13:10;;;;;;;69.70;34.63;;;;;;;8.05;88.44;100265.33;1738104;82;21216;-58
2021/12/09 06:16:16;;;;;;;65.22;31.45;;;;;;;8.09;88.46;100272.14;1738177;82;21757;-59
2021/12/09 06:19:22;;;;;;;62.40;30.82;;;;;;;8.11;88.33;100276.44;1740061;81;21275;-59
2021/12/09 06:22:28;;;;;;;59.08;30.02;;;;;;;8.12;88.11;100280.03;1769892;80;21181;-58
2021/12/09 06:25:33;;;;;;;61.88;29.85;;;;;;;8.13;88.12;100288.04;1770336;80;21459;-59
2021/12/09 06:28:38;;;;;;;52.98;27.73;;;;;;;8.12;88.02;100290.40;1765652;80;22057;-59
2021/12/09 06:31:43;;;;;;;62.98;31.97;;;;;;;8.12;87.93;100289.56;1763637;80;21546;-59
2021/12/09 06:34:48;;;;;;;61.37;30.65;;;;;;;8.12;87.92;100291.77;1748682;80;21224;-59
2021/12/09 06:37:52;;;;;;;60.05;30.43;;;;;;;8.10;87.87;100288.87;1740982;82;21213;-59
2021/12/09 06:41:01;;;;;;;56.33;31.15;;;;;;;8.09;87.85;100296.67;1740559;82;21440;-59
2021/12/09 06:44:09;;;;;;;52.78;29.02;;;;;;;8.12;88.03;100301.84;1740891;82;21224;-59
2021/12/09 06:47:14;;;;;;;51.10;28.27;;;;;;;8.14;88.09;100301.14;1739221;82;21196;-59
2021/12/09 06:50:21;;;;;;;51.48;27.55;;;;;;;8.19;88.04;100306.97;1739059;82;21185;-59
2021/12/09 06:53:26;;;;;;;51.33;27.05;;;;;;;8.21;87.97;100317.21;1738971;81;21734;-59
2021/12/09 06:56:35;;;;;;;46.15;26.30;;;;;;;8.24;87.93;100324.59;1705664;83;21188;-59
2021/12/09 06:59:41;;;;;;;47.43;26.30;;;;;;;8.26;87.81;100320.34;1692079;85;21405;-59
2021/12/09 07:02:50;;;;;;;50.35;25.45;;;;;;;8.27;87.74;100326.13;1690518;84;21420;-61
2021/12/09 07:06:06;;;;;;;44.85;25.80;;;;;;;8.26;87.56;100332.08;1739625;82;21201;-59
2021/12/09 07:09:14;;;;;;;47.83;26.80;;;;;;;8.27;87.58;100327.50;1705848;83;21216;-58
2021/12/09 07:12:18;;;;;;;45.52;25.15;;;;;;;8.28;87.50;100330.55;1692791;83;21306;-58
2021/12/09 07:15:26;;;;;;;43.63;25.52;;;;;;;8.27;87.47;100342.00;1698593;83;21352;-58
2021/12/09 07:18:32;;;;;;;58.40;28.23;;;;;;;8.29;87.54;100348.12;1705320;84;21231;-59
2021/12/09 07:21:39;;;;;;;50.17;28.00;;;;;;;8.30;87.49;100348.48;1712368;83;21644;-58
2021/12/09 07:24:45;;;;;;;63.17;32.75;;;;;;;8.32;87.49;100358.73;1762504;81;21366;-56
2021/12/09 07:27:52;;;;;;;61.90;30.55;;;;;;;8.33;87.46;100359.06;1759923;81;21267;-58
2021/12/09 07:30:58;;;;;;;54.70;28.20;;;;;;;8.34;87.44;100358.57;1739091;82;21224;-58
2021/12/09 07:34:05;;;;;;;52.25;28.25;;;;;;;8.36;87.40;100361.47;1739939;82;21220;-58
2021/12/09 07:37:09;;;;;;;52.95;28.85;;;;;;;8.38;87.43;100367.62;1739754;81;21201;-60
2021/12/09 07:40:19;;;;;;;53.28;26.85;;;;;;;8.39;87.36;100367.09;1742806;81;21260;-58
2021/12/09 07:43:24;;;;;;;53.28;28.35;;;;;;;8.43;87.34;100368.50;1760192;81;21210;-58
2021/12/09 07:46:29;;;;;;;60.83;31.65;;;;;;;8.38;87.07;100370.35;1744899;81;21224;-58
2021/12/09 07:49:35;;;;;;;52.35;29.77;;;;;;;8.32;87.08;100373.73;1761027;81;21967;-58
2021/12/09 07:52:41;;;;;;;60.85;38.23;;;;;;;8.32;87.35;100372.87;1756400;80;21202;-58
2021/12/09 07:55:46;;;;;;;66.12;37.40;;;;;;;8.34;87.46;100371.67;1745752;81;21896;-58
2021/12/09 07:58:53;;;;;;;54.93;29.95;;;;;;;8.37;87.54;100374.61;1740461;82;21730;-59
2021/12/09 08:01:58;;;;;;;56.73;29.10;;;;;;;8.38;87.48;100374.94;1749761;81;21193;-60
2021/12/09 08:05:04;;;;;;;49.48;27.35;;;;;;;8.38;87.53;100389.94;1771244;80;21911;-59
2021/12/09 08:08:11;;;;;;;54.18;30.62;;;;;;;8.40;87.63;100383.83;1741891;80;21262;-59
2021/12/09 08:11:16;;;;;;;51.92;29.00;;;;;;;8.43;87.73;100389.81;1744184;81;21814;-58
2021/12/09 08:14:22;;;;;;;49.60;26.02;;;;;;;8.49;87.81;100385.57;1759550;80;21212;-57
2021/12/09 08:20:41;;;;;;;45.75;27.17;;;;;;;8.57;87.62;100395.16;1740256;82;21327;-58
2021/12/09 08:23:47;;;;;;;45.60;26.77;;;;;;;8.60;87.64;100395.70;1744943;81;21728;-58
2021/12/09 08:26:52;;;;;;;43.30;24.60;;;;;;;8.60;87.44;100390.74;1740873;82;21398;-59
2021/12/09 08:30:01;;;;;;;47.23;25.90;;;;;;;8.63;87.48;100398.59;1740828;81;21363;-58
2021/12/09 08:33:08;;;;;;;44.25;23.55;;;;;;;8.67;87.52;100397.27;1747430;81;21587;-59
2021/12/09 08:36:12;;;;;;;42.17;25.00;;;;;;;8.71;87.40;100396.77;1762320;81;21612;-59
2021/12/09 08:39:18;;;;;;;40.17;23.77;;;;;;;8.74;87.16;100395.08;1761912;80;21774;-59
2021/12/09 08:42:24;;;;;;;43.00;25.75;;;;;;;8.71;87.01;100394.55;1740155;82;21185;-59
2021/12/09 08:45:30;;;;;;;42.85;26.55;;;;;;;8.71;86.99;100388.59;1740177;82;21349;-58
2021/12/09 08:48:37;;;;;;;44.23;25.60;;;;;;;8.74;87.07;100386.02;1740279;81;21211;-59
2021/12/09 08:51:42;;;;;;;38.63;22.80;;;;;;;8.76;87.07;100386.73;1755130;81;21196;-59
2021/12/09 08:54:47;;;;;;;37.33;23.10;;;;;;;8.82;87.04;100385.56;1756806;81;21566;-59
2021/12/09 08:57:55;;;;;;;41.42;24.02;;;;;;;8.86;86.98;100387.46;1764663;80;21907;-58
2021/12/09 09:01:01;;;;;;;38.45;22.87;;;;;;;8.88;86.78;100389.49;1748531;81;21199;-59
2021/12/09 09:04:08;;;;;;;38.40;22.10;;;;;;;8.90;86.83;100386.09;1747164;81;21597;-59
2021/12/09 09:07:15;;;;;;;38.92;23.27;;;;;;;8.92;86.78;100390.89;1756070;81;21767;-59
2021/12/09 09:10:23;;;;;;;40.03;23.70;;;;;;;8.95;86.74;100382.36;1739399;81;21226;-58
2021/12/09 09:13:29;;;;;;;39.45;22.32;;;;;;;8.96;86.66;100391.75;1738282;81;21222;-58
2021/12/09 09:16:35;;;;;;;38.05;22.37;;;;;;;8.97;86.52;100389.89;1738705;82;21777;-58
2021/12/09 09:19:42;;;;;;;37.45;22.17;;;;;;;8.97;86.51;100390.72;1732713;82;21210;-59
2021/12/09 09:22:48;;;;;;;39.67;22.93;;;;;;;9.00;86.55;100386.33;1738653;81;21263;-59
2021/12/09 09:25:54;;;;;;;41.13;21.85;;;;;;;9.03;86.46;100380.53;1705538;83;21191;-59
2021/12/09 09:29:00;;;;;;;46.15;23.85;;;;;;;9.04;86.37;100384.95;1699890;84;21248;-59
2021/12/09 09:32:07;;;;;;;37.58;23.52;;;;;;;9.05;86.30;100389.38;1700058;84;21252;-58
2021/12/09 09:35:13;;;;;;;42.67;23.38;;;;;;;9.05;86.22;100391.28;1700272;83;22044;-59
2021/12/09 09:38:18;;;;;;;43.17;24.90;;;;;;;9.07;86.23;100387.85;1700203;84;21782;-59
2021/12/09 09:41:31;;;;;;;38.45;23.22;;;;;;;9.07;86.15;100391.45;1699842;84;21221;-58
2021/12/09 09:44:45;;;;;;;40.80;23.18;;;;;;;9.06;86.14;100391.62;1697606;84;22000;-58
2021/12/09 09:47:40;;;;;;;69.25;46.85;;;;;;;9.08;86.18;100402.70;1697764;84;21316;-59
2021/12/09 09:50:49;;;;;;;51.20;33.02;;;;;;;9.07;86.23;100404.23;1690473;84;21236;-59
2021/12/09 09:53:56;;;;;;;40.23;24.92;;;;;;;9.10;86.30;100412.12;1702819;83;21698;-59
2021/12/09 09:57:03;;;;;;;36.08;22.50;;;;;;;9.12;86.28;100407.33;1761780;81;21258;-59
2021/12/09 10:00:10;;;;;;;36.80;22.67;;;;;;;9.12;86.20;100408.69;1763909;81;21196;-58
2021/12/09 10:03:18;;;;;;;37.10;22.65;;;;;;;9.11;86.15;100411.09;1755580;80;21264;-58
2021/12/09 10:06:28;;;;;;;33.30;20.93;;;;;;;9.10;86.16;100412.12;1770231;80;21409;-58
2021/12/09 10:09:33;;;;;;;34.43;21.30;;;;;;;9.12;86.16;100420.98;1762393;80;21306;-58
2021/12/09 10:12:37;;;;;;;39.05;22.13;;;;;;;9.11;86.20;100415.19;1769920;81;21204;-59
2021/12/09 10:15:51;;;;;;;31.45;21.07;;;;;;;9.12;86.28;100416.05;1769573;80;21558;-57
2021/12/09 10:18:59;;;;;;;36.35;22.17;;;;;;;9.13;86.29;100416.39;1769672;80;21177;-57
2021/12/09 10:22:25;;;;;;;34.48;21.17;;;;;;;9.14;86.16;100416.22;1769615;80;21248;-59
2021/12/09 10:25:30;;;;;;;35.95;22.00;;;;;;;9.11;86.21;100417.92;1769006;80;21192;-58
2021/12/09 10:28:35;;;;;;;38.23;22.22;;;;;;;9.12;86.23;100411.95;1768639;80;21225;-58
2021/12/09 10:31:57;;;;;;;31.75;20.62;;;;;;;9.16;86.35;100412.82;1769084;80;21173;-57
2021/12/09 10:35:01;;;;;;;35.35;21.95;;;;;;;9.19;86.39;100410.25;1769478;80;21173;-57
2021/12/09 10:38:08;;;;;;;34.27;22.82;;;;;;;9.19;86.27;100414.34;1746913;80;21271;-58
2021/12/09 10:41:17;;;;;;;34.15;21.50;;;;;;;9.17;86.16;100421.34;1756658;81;21755;-57
2021/12/09 10:44:24;;;;;;;37.15;22.37;;;;;;;9.17;86.31;100418.61;1759941;81;21260;-59
2021/12/09 10:54:05;;;;;;;36.85;22.98;;;;;;;9.20;86.25;100425.64;1747913;81;21425;-57
2021/12/09 10:57:32;;;;;;;42.65;22.58;;;;;;;9.17;86.29;100422.71;1750271;81;21224;-59
2021/12/09 11:00:45;;;;;;;44.03;22.52;;;;;;;9.18;86.41;100430.41;1740116;81;21284;-57
2021/12/09 11:03:58;;;;;;;42.05;24.55;;;;;;;9.21;86.39;100438.27;1750508;81;21189;-58
2021/12/09 11:07:04;;;;;;;45.05;24.87;;;;;;;9.20;86.42;100437.93;1735002;81;21304;-58
2021/12/09 11:10:31;;;;;;;43.80;26.35;;;;;;;9.21;86.49;100437.77;1767571;81;21245;-58
2021/12/09 11:13:49;;;;;;;49.67;25.72;;;;;;;9.18;86.41;100444.89;1753294;80;21619;-58
2021/12/09 11:17:07;;;;;;;44.55;24.72;;;;;;;9.17;86.48;100443.70;1748406;80;21189;-59
2021/12/09 11:20:16;;;;;;;42.58;25.72;;;;;;;9.19;86.64;100448.48;1743187;81;21727;-58
2021/12/09 11:23:41;;;;;;;46.13;25.65;;;;;;;9.20;86.63;100444.23;1745382;81;21196;-59
2021/12/09 11:26:57;;;;;;;43.85;26.70;;;;;;;9.19;86.57;100445.26;1731343;83;21788;-58
2021/12/09 11:30:13;;;;;;;43.20;26.05;;;;;;;9.20;86.66;100444.23;1740598;81;21210;-59
2021/12/09 11:33:18;;;;;;;61.02;40.45;;;;;;;9.24;86.71;100446.98;1732266;82;21225;-58
2021/12/09 11:36:25;;;;;;;54.48;34.58;;;;;;;9.24;86.78;100449.72;1748763;81;21267;-58
2021/12/09 11:39:35;;;;;;;48.58;29.55;;;;;;;9.26;86.78;100449.55;1746993;81;21725;-58
2021/12/09 11:42:53;;;;;;;44.38;27.00;;;;;;;9.27;86.78;100448.52;1741705;81;21758;-58
2021/12/09 11:45:59;;;;;;;43.83;25.52;;;;;;;9.28;86.78;100449.72;1753230;81;21717;-58
2021/12/09 11:49:04;;;;;;;39.05;23.15;;;;;;;9.29;86.74;100443.75;1704697;84;21275;-58
2021/12/09 11:52:09;;;;;;;43.85;25.10;;;;;;;9.27;86.66;100448.02;1671553;83;21358;-54
2021/12/09 11:55:18;;;;;;;46.58;26.52;;;;;;;9.19;86.35;100451.22;1704811;84;21254;-53
2021/12/09 11:58:29;;;;;;;43.50;24.95;;;;;;;9.12;86.72;100452.92;1732242;82;21302;-52
2021/12/09 12:11:50;;;;;;;33.63;21.07;;;;;;;9.16;87.48;100470.67;1694628;82;21264;-53
2021/12/09 12:15:02;;;;;;;31.85;20.00;;;;;;;9.20;87.49;100473.44;1749114;80;21221;-53
2021/12/09 12:22:31;;;;;;;46.00;27.22;;;;;;;9.17;87.32;100466.41;1737992;79;21896;-52
2021/12/09 12:25:06;;;;;;;48.35;29.18;;;;;;;9.17;87.38;100467.77;1739344;80;21841;-52
2021/12/09 12:28:46;;;;;;;40.95;27.50;;;;;;;9.19;87.38;100478.53;1750668;81;21200;-52
2021/12/09 12:39:06;;;;;;;36.38;22.13;;;;;;;9.25;87.47;100491.02;1752537;80;21216;-53
2021/12/09 12:42:16;;;;;;;34.08;21.82;;;;;;;9.29;87.42;100501.12;1757855;81;21193;-53
2021/12/09 12:48:54;;;;;;;37.13;21.10;;;;;;;9.28;87.28;100511.17;1762439;81;21244;-53
2021/12/09 12:52:08;;;;;;;36.98;21.90;;;;;;;9.27;87.13;100513.58;1750999;79;21193;-53
2021/12/09 12:55:26;;;;;;;38.92;22.52;;;;;;;9.25;87.19;100522.44;1747465;81;21553;-53
2021/12/09 12:58:32;;;;;;;44.00;22.80;;;;;;;9.25;87.28;100523.80;1731609;81;21831;-52
2021/12/09 13:01:40;;;;;;;41.50;22.55;;;;;;;9.25;87.41;100525.16;1745209;81;21761;-52
2021/12/09 13:05:15;;;;;;;39.33;20.72;;;;;;;9.23;87.29;100532.66;1746085;80;21212;-53
2021/12/09 13:11:25;;;;;;;39.53;21.75;;;;;;;9.20;87.67;100542.55;1737962;82;21208;-53
2021/12/09 13:14:33;;;;;;;41.08;22.05;;;;;;;9.22;87.72;100546.48;1739555;82;21227;-53
2021/12/09 13:17:58;;;;;;;40.43;21.33;;;;;;;9.23;87.78;100543.59;1743874;81;21764;-52
2021/12/09 13:20:57;;;;;;;37.45;19.60;;;;;;;9.24;87.78;100547.19;1763008;81;21251;-51
2021/12/09 13:24:37;;;;;;;37.80;20.68;;;;;;;9.24;87.87;100558.98;1749312;79;21255;-52
2021/12/09 13:28:02;;;;;;;43.92;21.62;;;;;;;9.23;87.81;100559.97;1701645;83;21222;-54
2021/12/09 13:31:16;;;;;;;42.90;21.30;;;;;;;9.22;87.85;100561.00;1685178;81;21267;-53
2021/12/09 13:34:21;;;;;;;45.78;21.65;;;;;;;9.22;87.95;100559.64;1737710;82;21876;-53
2021/12/09 13:45:45;;;;;;;43.20;19.70;;;;;;;9.24;88.03;100574.00;1758732;81;21781;-53
2021/12/09 13:54:18;;;;;;;42.80;22.52;;;;;;;9.26;88.29;100588.86;1745771;81;21208;-53
2021/12/09 13:57:15;;;;;;;44.60;23.12;;;;;;;9.27;88.32;100594.16;1770467;80;21216;-54
2021/12/09 14:00:38;;;;;;;46.05;23.77;;;;;;;9.27;88.38;100594.16;1758596;79;21199;-53
2021/12/09 14:03:49;;;;;;;45.30;23.83;;;;;;;9.30;88.44;100594.33;1753694;81;21819;-52
2021/12/09 14:07:24;;;;;;;45.78;24.05;;;;;;;9.31;88.48;100603.73;1766141;81;21746;-51
2021/12/09 14:10:22;;;;;;;55.45;25.90;;;;;;;9.34;88.51;100609.39;1734391;80;21208;-51
2021/12/09 14:13:26;;;;;;;48.17;24.18;;;;;;;9.34;88.50;100612.12;1740225;82;21789;-51
2021/12/09 14:20:02;;;;;;;46.95;23.98;;;;;;;9.35;88.49;100615.19;1739735;82;21224;-53
2021/12/09 14:23:05;;;;;;;50.50;26.55;;;;;;;9.35;88.57;100617.92;1740541;81;21338;-51
2021/12/09 14:26:15;;;;;;;61.28;27.50;;;;;;;9.36;88.64;100624.59;1773135;80;21747;-52
2021/12/09 14:29:23;;;;;;;65.85;33.00;;;;;;;9.36;88.62;100621.86;1752587;81;21262;-53
2021/12/09 14:32:31;;;;;;;57.08;29.95;;;;;;;9.32;88.60;100628.68;1767459;81;21190;-54
2021/12/09 14:35:44;;;;;;;66.53;31.85;;;;;;;9.32;88.76;100632.78;1770321;80;21227;-54
2021/12/09 14:38:51;;;;;;;75.60;31.75;;;;;;;9.31;88.73;100635.14;1770461;80;21205;-53
2021/12/09 14:42:19;;;;;;;61.28;31.15;;;;;;;9.30;88.78;100638.04;1770415;81;21605;-54
2021/12/09 14:45:25;;;;;;;62.93;30.15;;;;;;;9.32;88.86;100640.97;1764064;80;21593;-53
2021/12/09 14:48:46;;;;;;;59.38;29.05;;;;;;;9.31;88.82;100642.50;1740562;82;21217;-54
2021/12/09 14:51:52;;;;;;;66.57;30.48;;;;;;;9.30;88.94;100643.50;1749766;80;21215;-54
2021/12/09 14:54:58;;;;;;;64.05;29.63;;;;;;;9.29;88.94;100636.34;1736130;81;21355;-54
2021/12/09 14:58:16;;;;;;;61.95;27.62;;;;;;;9.28;88.93;100639.56;1739006;81;21713;-53
2021/12/09 15:01:26;;;;;;;61.20;30.68;;;;;;;9.30;88.97;100640.77;1736476;81;21733;-53
2021/12/09 15:04:43;;;;;;;51.13;27.00;;;;;;;9.30;88.96;100639.41;1735512;82;21191;-55
2021/12/09 15:07:59;;;;;;;50.65;26.15;;;;;;;9.31;88.96;100641.14;1741449;81;22060;-54
2021/12/09 15:10:53;;;;;;;50.95;26.75;;;;;;;9.31;88.94;100643.34;1735163;82;21188;-53
2021/12/09 15:14:02;;;;;;;46.65;25.65;;;;;;;9.31;88.92;100644.70;1735408;82;21215;-54
2021/12/09 15:17:27;;;;;;;44.00;23.38;;;;;;;9.32;88.94;100651.91;1735844;82;21549;-53
2021/12/09 15:20:49;;;;;;;51.50;26.10;;;;;;;9.33;88.95;100649.50;1735159;82;21184;-53
2021/12/09 15:23:57;;;;;;;49.55;24.52;;;;;;;9.34;88.88;100651.73;1750263;81;21235;-54